createdAt,value
2023-01-05T00:00:11.287Z,4.07
2023-01-05T00:02:40.511Z,5.53
2023-01-05T00:05:07.386Z,3.50
2023-01-05T00:07:33.996Z,4.28
2023-01-05T00:10:00.539Z,4.50
2023-01-05T00:12:45.867Z,4.07
2023-01-05T00:15:31.550Z,5.07
2023-01-05T00:18:16.818Z,4.00
2023-01-05T00:21:01.634Z,5.03
2023-01-05T00:23:28.114Z,4.15
2023-01-05T00:25:54.656Z,4.40
2023-01-05T00:28:21.575Z,4.50
2023-01-05T00:30:48.156Z,4.70
2023-01-05T00:33:16.327Z,4.25
2023-01-05T00:35:43.071Z,4.82
2023-01-05T00:38:09.877Z,4.93
2023-01-05T00:40:38.335Z,3.63
2023-01-05T00:43:04.876Z,4.78
2023-01-05T00:45:31.593Z,4.63
2023-01-05T00:47:58.254Z,4.70
2023-01-05T00:50:25.004Z,5.70
2023-01-05T00:52:51.585Z,3.85
2023-01-05T00:55:18.165Z,4.38
2023-01-05T00:57:45.341Z,4.47
2023-01-05T01:00:16.083Z,3.88
2023-01-05T01:02:43.099Z,4.70
2023-01-05T01:05:09.914Z,4.28
2023-01-05T01:07:36.880Z,4.97
2023-01-05T01:10:05.524Z,5.03
2023-01-05T01:12:32.049Z,4.78
2023-01-05T01:14:58.614Z,4.45
2023-01-05T01:17:25.153Z,4.13
2023-01-05T01:19:51.675Z,6.00
2023-01-05T01:22:18.195Z,4.40
2023-01-05T01:24:44.751Z,3.92
2023-01-05T01:27:11.484Z,3.97
2023-01-05T01:29:39.362Z,4.90
2023-01-05T01:32:05.944Z,4.10
2023-01-05T01:34:32.556Z,4.50
2023-01-05T01:37:00.164Z,4.22
2023-01-05T01:39:31.786Z,4.78
2023-01-05T01:42:03.444Z,4.10
2023-01-05T01:44:59.654Z,5.60
2023-01-05T01:47:33.680Z,4.30
2023-01-05T01:50:14.951Z,4.32
2023-01-05T01:52:42.059Z,4.45
2023-01-05T01:55:09.639Z,4.88
2023-01-05T01:57:36.706Z,4.88
2023-01-05T02:00:06.622Z,4.82
2023-01-05T02:02:44.440Z,5.43
2023-01-05T02:05:12.539Z,5.22
2023-01-05T02:07:44.480Z,4.85
2023-01-05T02:10:13.739Z,5.03
2023-01-05T02:13:03.101Z,3.70
2023-01-05T02:15:35.600Z,5.05
2023-01-05T02:18:18.672Z,4.18
2023-01-05T02:21:17.493Z,5.15
2023-01-05T02:24:09.607Z,3.83
2023-01-05T02:26:54.701Z,4.35
2023-01-05T02:29:53.387Z,4.45
2023-01-05T02:32:23.134Z,4.80
2023-01-05T02:35:16.501Z,5.72
2023-01-05T02:37:48.354Z,4.90
2023-01-05T02:40:22.014Z,4.72
2023-01-05T02:42:51.188Z,5.05
2023-01-05T02:45:21.959Z,4.45
2023-01-05T02:47:49.946Z,4.93
2023-01-05T02:50:21.056Z,5.60
2023-01-05T02:53:08.064Z,5.18
2023-01-05T02:55:40.229Z,5.63
2023-01-05T02:58:24.188Z,5.60
2023-01-05T03:00:55.179Z,5.13
2023-01-05T03:03:47.934Z,4.53
2023-01-05T03:06:19.511Z,5.45
2023-01-05T03:08:52.449Z,6.65
2023-01-05T03:11:39.802Z,5.97
2023-01-05T03:14:15.197Z,5.43
2023-01-05T03:16:43.993Z,5.13
2023-01-05T03:19:32.290Z,4.43
2023-01-05T03:22:20.642Z,5.75
2023-01-05T03:25:06.816Z,5.28
2023-01-05T03:27:55.611Z,5.00
2023-01-05T03:30:49.082Z,6.07
2023-01-05T03:33:48.564Z,4.93
2023-01-05T03:36:18.869Z,6.07
2023-01-05T03:38:47.628Z,5.43
2023-01-05T03:41:16.555Z,5.20
2023-01-05T03:43:46.600Z,5.15
2023-01-05T03:46:19.085Z,5.60
2023-01-05T03:48:45.879Z,6.28
2023-01-05T03:51:13.091Z,6.25
2023-01-05T03:53:40.689Z,4.72
2023-01-05T03:56:07.695Z,5.00
2023-01-05T03:58:34.763Z,4.88
2023-01-05T04:01:01.357Z,5.50
2023-01-05T04:03:31.964Z,4.45
2023-01-05T04:06:01.156Z,6.47
2023-01-05T04:08:30.018Z,4.93
2023-01-05T04:10:57.996Z,4.60
2023-01-05T04:13:25.040Z,4.43
2023-01-05T04:15:54.436Z,5.80
2023-01-05T04:18:21.062Z,4.93
2023-01-05T04:20:47.688Z,5.07
2023-01-05T04:23:14.352Z,4.45
2023-01-05T04:25:41.909Z,4.32
2023-01-05T04:28:16.316Z,5.15
2023-01-05T04:30:44.617Z,5.05
2023-01-05T04:33:11.653Z,4.90
2023-01-05T04:35:38.500Z,4.85
2023-01-05T04:38:05.455Z,5.53
2023-01-05T04:40:33.243Z,6.90
2023-01-05T04:43:00.910Z,5.70
2023-01-05T04:45:27.472Z,5.80
2023-01-05T04:47:54.872Z,5.22
2023-01-05T04:50:22.340Z,4.88
2023-01-05T04:52:49.689Z,6.57
2023-01-05T04:55:18.644Z,5.10
2023-01-05T04:57:46.036Z,5.75
2023-01-05T05:00:13.962Z,5.72
2023-01-05T05:02:40.632Z,4.93
2023-01-05T05:05:09.689Z,5.70
2023-01-05T05:07:38.098Z,6.50
2023-01-05T05:10:05.519Z,6.80
2023-01-05T05:12:32.744Z,4.68
2023-01-05T05:14:59.417Z,5.13
2023-01-05T05:17:25.977Z,4.95
2023-01-05T05:19:52.522Z,5.35
2023-01-05T05:22:21.326Z,4.97
2023-01-05T05:24:47.910Z,4.95
2023-01-05T05:27:14.463Z,5.35
2023-01-05T05:29:40.935Z,5.95
2023-01-05T05:32:07.415Z,5.13
2023-01-05T05:34:33.991Z,5.20
2023-01-05T05:37:00.518Z,6.18
2023-01-05T05:39:27.071Z,5.03
2023-01-05T05:41:53.869Z,6.40
2023-01-05T05:44:20.437Z,4.88
2023-01-05T05:46:47.015Z,5.32
2023-01-05T05:49:13.568Z,5.95
2023-01-05T05:51:40.328Z,5.63
2023-01-05T05:54:06.931Z,5.32
2023-01-05T05:56:33.495Z,6.32
2023-01-05T05:59:01.762Z,6.03
2023-01-05T06:01:28.871Z,6.32
2023-01-05T06:03:55.657Z,5.57
2023-01-05T06:06:22.405Z,6.65
2023-01-05T06:08:48.998Z,6.25
2023-01-05T06:11:15.568Z,6.63
2023-01-05T06:13:42.324Z,7.07
2023-01-05T06:16:08.926Z,7.80
2023-01-05T06:18:35.642Z,6.80
2023-01-05T06:21:02.295Z,6.30
2023-01-05T06:23:28.968Z,7.18
2023-01-05T06:25:55.461Z,6.72
2023-01-05T06:28:21.989Z,7.90
2023-01-05T06:30:48.616Z,6.72
2023-01-05T06:33:15.166Z,6.88
2023-01-05T06:35:41.713Z,6.55
2023-01-05T06:38:08.326Z,6.88
2023-01-05T06:40:34.873Z,6.47
2023-01-05T06:43:01.424Z,6.68
2023-01-05T06:45:27.982Z,7.00
2023-01-05T06:47:54.745Z,5.95
2023-01-05T06:50:21.280Z,6.38
2023-01-05T06:52:47.767Z,6.38
2023-01-05T06:55:14.343Z,6.15
2023-01-05T06:57:40.927Z,7.13
2023-01-05T07:00:10.379Z,7.90
2023-01-05T07:02:37.251Z,6.45
2023-01-05T07:05:03.817Z,6.72
2023-01-05T07:07:30.402Z,6.82
2023-01-05T07:09:56.967Z,8.38
2023-01-05T07:12:23.536Z,7.13
2023-01-05T07:14:55.721Z,6.75
2023-01-05T07:17:24.067Z,6.63
2023-01-05T07:19:50.640Z,7.40
2023-01-05T07:22:17.147Z,7.38
2023-01-05T07:24:43.727Z,8.02
2023-01-05T07:27:10.360Z,7.18
2023-01-05T07:29:36.909Z,6.82
2023-01-05T07:32:03.946Z,7.82
2023-01-05T07:34:30.517Z,8.07
2023-01-05T07:36:57.379Z,8.40
2023-01-05T07:39:24.050Z,7.15
2023-01-05T07:41:50.554Z,6.35
2023-01-05T07:44:18.281Z,7.00
2023-01-05T07:46:44.875Z,7.10
2023-01-05T07:49:11.465Z,7.32
2023-01-05T07:51:37.953Z,8.60
2023-01-05T07:54:04.531Z,7.38
2023-01-05T07:56:31.041Z,7.45
2023-01-05T07:58:57.613Z,7.20
2023-01-05T08:01:24.229Z,7.28
2023-01-05T08:03:51.021Z,6.68
2023-01-05T08:06:19.493Z,7.22
2023-01-05T08:08:47.300Z,7.43
2023-01-05T08:11:15.850Z,7.40
2023-01-05T08:14:02.505Z,8.68
2023-01-05T08:16:31.312Z,7.75
2023-01-05T08:18:58.840Z,7.40
2023-01-05T08:21:25.736Z,9.00
2023-01-05T08:23:53.247Z,7.05
2023-01-05T08:26:22.995Z,9.20
2023-01-05T08:28:50.064Z,9.32
2023-01-05T08:31:17.911Z,8.95
2023-01-05T08:33:44.619Z,8.93
2023-01-05T08:36:14.252Z,8.80
2023-01-05T08:38:48.023Z,9.15
2023-01-05T08:41:26.657Z,8.93
2023-01-05T08:43:54.867Z,9.77
2023-01-05T08:46:23.922Z,9.32
2023-01-05T08:48:52.063Z,10.55
2023-01-05T08:51:19.206Z,9.25
2023-01-05T08:53:46.955Z,9.45
2023-01-05T08:56:14.179Z,11.18
2023-01-05T08:58:41.750Z,10.43
2023-01-05T09:01:09.911Z,10.13
2023-01-05T09:03:37.452Z,9.07
2023-01-05T09:06:05.740Z,9.73
2023-01-05T09:08:33.455Z,9.93
2023-01-05T09:11:06.907Z,9.85
2023-01-05T09:13:33.756Z,8.82
2023-01-05T09:16:13.506Z,9.00
2023-01-05T09:18:42.142Z,9.45
2023-01-05T09:21:09.398Z,8.27
2023-01-05T09:23:36.735Z,8.68
2023-01-05T09:26:08.187Z,7.78
2023-01-05T09:28:36.454Z,8.43
2023-01-05T09:31:17.241Z,8.27
2023-01-05T09:33:44.590Z,8.27
2023-01-05T09:36:11.897Z,8.82
2023-01-05T09:38:44.934Z,8.27
2023-01-05T09:41:21.177Z,9.48
2023-01-05T09:43:49.565Z,9.80
2023-01-05T09:46:23.564Z,8.95
2023-01-05T09:48:53.561Z,8.18
2023-01-05T09:51:20.039Z,8.93
2023-01-05T09:53:46.703Z,8.93
2023-01-05T09:57:07.295Z,9.35
2023-01-05T09:59:29.588Z,9.45
2023-01-05T10:02:00.258Z,12.35
2023-01-05T10:04:30.933Z,9.52
2023-01-05T10:07:04.702Z,8.50
2023-01-05T10:09:35.255Z,8.50
2023-01-05T10:12:26.572Z,7.85
2023-01-05T10:15:07.113Z,8.68
2023-01-05T10:17:41.919Z,8.68
2023-01-05T10:20:25.600Z,8.57
2023-01-05T10:23:19.033Z,7.60
2023-01-05T10:25:55.494Z,8.57
2023-01-05T10:28:42.649Z,7.47
2023-01-05T10:31:27.233Z,7.78
2023-01-05T10:34:05.958Z,7.50
2023-01-05T10:37:08.019Z,7.18
2023-01-05T10:40:04.849Z,7.50
2023-01-05T10:43:06.828Z,7.68
2023-01-05T10:45:33.748Z,7.35
2023-01-05T10:48:00.368Z,7.95
2023-01-05T10:50:44.496Z,8.10
2023-01-05T10:53:18.019Z,6.85
2023-01-05T10:56:14.921Z,7.28
2023-01-05T10:58:46.722Z,7.40
2023-01-05T11:01:25.433Z,7.40
2023-01-05T11:06:42.883Z,8.35
2023-01-05T11:09:24.538Z,7.38
2023-01-05T11:11:57.613Z,7.35
2023-01-05T11:14:24.681Z,7.20
2023-01-05T11:16:53.532Z,6.53
2023-01-05T11:19:23.333Z,6.70
2023-01-05T11:21:50.002Z,6.93
2023-01-05T11:24:35.687Z,6.60
2023-01-05T11:27:24.449Z,7.07
2023-01-05T11:30:15.712Z,6.30
2023-01-05T11:32:43.519Z,6.35
2023-01-05T11:35:30.398Z,5.95
2023-01-05T11:37:57.908Z,6.03
2023-01-05T11:40:29.187Z,5.85
2023-01-05T11:42:55.684Z,6.65
2023-01-05T11:45:28.485Z,6.63
2023-01-05T11:48:00.126Z,8.75
2023-01-05T11:50:28.860Z,7.65
2023-01-05T11:52:59.815Z,8.15
2023-01-05T11:55:39.924Z,7.00
2023-01-05T11:58:14.384Z,6.72
2023-01-05T12:01:02.044Z,6.38
2023-01-05T12:03:58.843Z,6.15
2023-01-05T12:06:34.446Z,6.68
2023-01-05T12:09:39.042Z,6.10
2023-01-05T12:12:36.374Z,6.68
2023-01-05T12:15:20.074Z,6.65
2023-01-05T12:18:26.681Z,6.90
2023-01-05T12:21:04.408Z,6.82
2023-01-05T12:23:46.848Z,7.47
2023-01-05T12:26:27.118Z,6.55
2023-01-05T12:30:09.409Z,6.68
2023-01-05T12:35:26.439Z,8.18
2023-01-05T12:38:31.667Z,10.55
2023-01-05T12:41:07.239Z,7.18
2023-01-05T12:44:06.163Z,6.43
2023-01-05T12:46:38.836Z,6.53
2023-01-05T12:49:12.338Z,6.13
2023-01-05T12:51:47.674Z,6.57
2023-01-05T12:54:31.233Z,5.95
2023-01-05T12:57:01.332Z,6.97
2023-01-05T12:59:52.327Z,8.05
2023-01-05T13:02:27.295Z,7.95
2023-01-05T13:05:04.775Z,6.68
2023-01-05T13:07:40.597Z,5.90
2023-01-05T13:10:24.938Z,6.65
2023-01-05T13:12:56.808Z,6.05
2023-01-05T13:15:38.864Z,6.95
2023-01-05T13:18:07.539Z,7.68
2023-01-05T13:20:43.431Z,13.80
2023-01-05T13:23:16.761Z,6.82
2023-01-05T13:25:51.403Z,5.50
2023-01-05T13:28:22.800Z,5.85
2023-01-05T13:31:27.629Z,5.25
2023-01-05T13:34:25.287Z,5.15
2023-01-05T13:37:10.143Z,5.25
2023-01-05T13:39:46.916Z,5.30
2023-01-05T13:42:37.248Z,7.50
2023-01-05T13:45:22.738Z,6.00
2023-01-05T13:48:07.292Z,5.28
2023-01-05T13:50:48.877Z,5.78
2023-01-05T13:55:51.668Z,5.50
2023-01-05T13:58:44.927Z,6.70
2023-01-05T14:01:18.820Z,6.93
2023-01-05T14:03:53.154Z,5.72
2023-01-05T14:06:42.384Z,6.10
2023-01-05T14:09:16.102Z,6.18
2023-01-05T14:12:07.248Z,5.80
2023-01-05T14:15:09.359Z,7.82
2023-01-05T14:17:51.817Z,8.60
2023-01-05T14:20:46.899Z,6.65
2023-01-05T14:23:22.823Z,5.25
2023-01-05T14:26:00.316Z,5.53
2023-01-05T14:28:35.847Z,5.80
2023-01-05T14:31:08.374Z,5.80
2023-01-05T14:33:46.882Z,5.40
2023-01-05T14:36:30.974Z,5.43
2023-01-05T14:39:27.356Z,4.78
2023-01-05T14:42:04.243Z,5.45
2023-01-05T14:44:35.035Z,6.13
2023-01-05T14:47:02.117Z,6.35
2023-01-05T14:49:40.968Z,6.78
2023-01-05T14:52:16.477Z,6.68
2023-01-05T14:54:42.937Z,21.30
2023-01-05T14:57:26.873Z,10.40
2023-01-05T15:00:26.116Z,6.95
2023-01-05T15:03:04.467Z,6.20
2023-01-05T15:05:31.374Z,6.32
2023-01-05T15:08:12.304Z,6.28
2023-01-05T15:10:45.640Z,5.97
2023-01-05T15:13:37.472Z,6.40
2023-01-05T15:16:32.571Z,6.80
2023-01-05T15:19:49.927Z,6.68
2023-01-05T15:22:51.135Z,6.63
2023-01-05T15:25:46.230Z,7.43
2023-01-05T15:28:47.577Z,7.05
2023-01-05T15:31:23.067Z,6.65
2023-01-05T15:34:00.589Z,6.47
2023-01-05T15:36:30.553Z,6.47
2023-01-05T15:38:57.688Z,6.25
2023-01-05T15:41:26.359Z,6.75
2023-01-05T15:43:53.057Z,6.13
2023-01-05T15:46:21.295Z,6.55
2023-01-05T15:48:51.303Z,6.50
2023-01-05T15:51:29.718Z,6.63
2023-01-05T15:54:05.309Z,6.63
2023-01-05T15:56:39.613Z,6.47
2023-01-05T15:59:19.691Z,5.82
2023-01-05T16:01:46.259Z,5.50
2023-01-05T16:04:14.208Z,6.47
2023-01-05T16:06:40.934Z,6.75
2023-01-05T16:09:25.498Z,6.57
2023-01-05T16:11:55.194Z,6.38
2023-01-05T16:15:01.304Z,6.45
2023-01-05T16:17:30.006Z,7.00
2023-01-05T16:20:07.895Z,6.00
2023-01-05T16:22:43.891Z,5.80
2023-01-05T16:25:15.215Z,6.55
2023-01-05T16:30:27.269Z,5.82
2023-01-05T16:33:02.467Z,5.30
2023-01-05T16:35:45.025Z,5.57
2023-01-05T16:38:11.466Z,6.90
2023-01-05T16:41:09.042Z,5.40
2023-01-05T16:43:40.945Z,5.22
2023-01-05T16:46:33.747Z,6.05
2023-01-05T16:49:31.899Z,5.95
2023-01-05T16:51:59.619Z,6.25
2023-01-05T16:54:36.218Z,6.30
2023-01-05T16:57:28.819Z,6.28
2023-01-05T16:59:55.819Z,6.32
2023-01-05T17:02:39.031Z,6.38
2023-01-05T17:05:06.256Z,6.38
2023-01-05T17:07:33.740Z,7.70
2023-01-05T17:10:00.249Z,7.15
2023-01-05T17:12:26.905Z,7.43
2023-01-05T17:14:54.915Z,7.55
2023-01-05T17:17:21.445Z,7.18
2023-01-05T17:19:51.633Z,7.20
2023-01-05T17:22:18.178Z,8.05
2023-01-05T17:24:44.747Z,7.50
2023-01-05T17:29:38.629Z,8.98
2023-01-05T17:32:05.164Z,8.10
2023-01-05T17:34:31.767Z,6.25
2023-01-05T17:36:59.667Z,7.18
2023-01-05T17:39:26.552Z,8.80
2023-01-05T17:41:53.111Z,8.15
2023-01-05T17:44:19.783Z,7.43
2023-01-05T17:46:47.653Z,7.78
2023-01-05T17:49:17.052Z,8.10
2023-01-05T17:51:44.115Z,8.00
2023-01-05T17:54:11.274Z,7.93
2023-01-05T17:56:37.978Z,8.88
2023-01-05T17:59:04.868Z,8.55
2023-01-05T18:01:33.513Z,7.72
2023-01-05T18:04:00.318Z,9.77
2023-01-05T18:06:27.213Z,7.88
2023-01-05T18:08:55.049Z,8.85
2023-01-05T18:11:21.642Z,8.82
2023-01-05T18:13:48.355Z,9.70
2023-01-05T18:16:14.897Z,8.27
2023-01-05T18:18:41.420Z,9.80
2023-01-05T18:21:08.027Z,9.07
2023-01-05T18:23:34.822Z,9.50
2023-01-05T18:26:05.856Z,10.68
2023-01-05T18:28:32.483Z,10.60
2023-01-05T18:31:00.778Z,10.55
2023-01-05T18:33:27.708Z,10.32
2023-01-05T18:38:21.678Z,9.82
2023-01-05T18:40:49.811Z,10.02
2023-01-05T18:43:16.884Z,11.60
2023-01-05T18:45:43.512Z,11.00
2023-01-05T18:48:10.138Z,10.85
2023-01-05T18:50:42.088Z,12.73
2023-01-05T18:53:08.616Z,11.25
2023-01-05T18:55:35.304Z,10.55
2023-01-05T18:58:01.800Z,12.38
2023-01-05T19:00:28.296Z,10.45
2023-01-05T19:02:54.820Z,11.02
2023-01-05T19:05:21.312Z,10.73
2023-01-05T19:07:52.000Z,11.63
2023-01-05T19:10:19.088Z,12.77
2023-01-05T19:12:45.658Z,12.40
2023-01-05T19:15:12.213Z,12.07
2023-01-05T19:17:38.754Z,12.85
2023-01-05T19:20:05.975Z,14.32
2023-01-05T19:22:34.392Z,12.70
2023-01-05T19:25:01.058Z,12.10
2023-01-05T19:27:27.995Z,13.15
2023-01-05T19:29:54.562Z,14.25
2023-01-05T19:32:21.115Z,13.40
2023-01-05T19:34:47.622Z,14.40
2023-01-05T19:37:14.122Z,14.82
2023-01-05T19:39:41.092Z,13.88
2023-01-05T19:42:07.712Z,15.30
2023-01-05T19:44:34.210Z,15.15
2023-01-05T19:47:00.751Z,15.43
2023-01-05T19:49:27.897Z,16.52
2023-01-05T19:51:54.716Z,16.30
2023-01-05T19:54:22.456Z,16.30
2023-01-05T19:56:49.116Z,17.65
2023-01-05T19:59:21.785Z,16.42
2023-01-05T20:01:48.442Z,15.25
2023-01-05T20:04:15.409Z,15.93
2023-01-05T20:06:44.226Z,14.55
2023-01-05T20:09:14.364Z,15.82
2023-01-05T20:11:44.353Z,15.82
2023-01-05T20:14:17.089Z,14.75
2023-01-05T20:16:47.470Z,16.75
2023-01-05T20:19:14.619Z,14.67
2023-01-05T20:21:41.210Z,15.38
2023-01-05T20:24:11.073Z,15.80
2023-01-05T20:26:37.548Z,17.10
2023-01-05T20:29:04.395Z,15.18
2023-01-05T20:31:35.430Z,15.35
2023-01-05T20:34:05.732Z,17.05
2023-01-05T20:36:32.319Z,15.20
2023-01-05T20:38:59.773Z,16.80
2023-01-05T20:41:31.750Z,16.42
2023-01-05T20:43:58.465Z,16.23
2023-01-05T20:46:31.232Z,15.88
2023-01-05T20:48:58.201Z,16.65
2023-01-05T20:51:25.620Z,17.23
2023-01-05T20:53:53.978Z,15.52
2023-01-05T20:56:27.310Z,16.45
2023-01-05T20:58:54.732Z,15.70
2023-01-05T21:01:22.317Z,16.15
2023-01-05T21:03:50.216Z,16.17
2023-01-05T21:06:17.736Z,16.42
2023-01-05T21:08:46.196Z,16.67
2023-01-05T21:11:15.896Z,16.73
2023-01-05T21:13:47.237Z,15.98
2023-01-05T21:18:42.133Z,16.63
2023-01-05T21:21:08.753Z,16.98
2023-01-05T21:23:35.259Z,17.25
2023-01-05T21:26:10.261Z,18.20
2023-01-05T21:28:41.464Z,15.98
2023-01-05T21:31:12.155Z,17.05
2023-01-05T21:33:40.390Z,18.50
2023-01-05T21:36:14.701Z,17.65
2023-01-05T21:39:02.492Z,16.38
2023-01-05T21:41:47.067Z,17.58
2023-01-05T21:44:14.411Z,16.98
2023-01-05T21:46:41.761Z,17.38
2023-01-05T21:49:10.187Z,18.25
2023-01-05T21:51:55.724Z,17.05
2023-01-05T21:54:41.613Z,16.33
2023-01-05T21:57:08.370Z,17.38
2023-01-05T21:59:35.042Z,18.08
2023-01-05T22:02:02.793Z,17.35
2023-01-05T22:04:29.307Z,17.75
2023-01-05T22:06:55.873Z,16.58
2023-01-05T22:09:22.456Z,16.83
2023-01-05T22:11:48.931Z,17.52
2023-01-05T22:14:15.609Z,17.27
2023-01-05T22:16:42.223Z,16.92
2023-01-05T22:19:10.584Z,16.63
2023-01-05T22:21:37.220Z,17.00
2023-01-05T22:24:05.615Z,17.40
2023-01-05T22:26:32.244Z,17.52
2023-01-05T22:28:58.774Z,17.08
2023-01-05T22:31:27.976Z,16.98
2023-01-05T22:33:58.885Z,16.20
2023-01-05T22:36:26.555Z,14.98
2023-01-05T22:38:53.943Z,14.55
2023-01-05T22:41:23.463Z,13.45
2023-01-05T22:43:50.567Z,13.05
2023-01-05T22:46:19.755Z,12.27
2023-01-05T22:48:47.312Z,13.35
2023-01-05T22:51:36.671Z,12.65
2023-01-05T22:54:04.902Z,11.88
2023-01-05T22:56:32.987Z,11.10
2023-01-05T22:59:00.476Z,12.20
2023-01-05T23:01:36.277Z,9.77
2023-01-05T23:04:05.162Z,10.20
2023-01-05T23:06:31.878Z,9.13
2023-01-05T23:08:58.838Z,9.18
2023-01-05T23:11:30.412Z,6.97
2023-01-05T23:13:58.355Z,7.03
2023-01-05T23:16:25.873Z,6.60
2023-01-05T23:18:53.085Z,5.80
2023-01-05T23:21:20.911Z,4.80
2023-01-05T23:23:47.759Z,4.20
2023-01-05T23:26:15.598Z,3.95
2023-01-05T23:28:43.466Z,3.63
2023-01-05T23:31:11.552Z,4.15
2023-01-05T23:33:38.299Z,3.88
2023-01-05T23:36:05.928Z,4.28
2023-01-05T23:38:33.088Z,3.60
2023-01-05T23:41:02.067Z,3.85
2023-01-05T23:43:29.997Z,3.85
2023-01-05T23:46:05.968Z,3.80
2023-01-05T23:48:34.248Z,3.42
2023-01-05T23:51:00.785Z,4.00
2023-01-05T23:53:27.278Z,3.75
2023-01-05T23:56:07.901Z,3.38
2023-01-05T23:58:35.181Z,3.03
